Time;durP1;ratioP1;P1;durP2;ratioP2;P2;SDS_P1;SDS_P2;PMS_P1;PMS_P2;Temp;Humidity;BMP_temperature;BMP_pressure;BME280_temperature;BME280_humidity;BME280_pressure;Samples;Min_cycle;Max_cycle;Signal;HPM_P1;HPM_P2
2023/12/31 00:00:44;;;;;;;14.10;8.70;;;;;;;8.10;70.17;99027.66;231954;202;136867;-60
2023/12/31 00:06:10;;;;;;;14.30;8.60;;;;;;;8.06;70.16;99029.66;232164;197;151999;-59
2023/12/31 00:11:14;;;;;;;14.80;9.00;;;;;;;8.03;70.24;99028.06;232019;200;137435;-59
2023/12/31 00:16:17;;;;;;;15.30;9.50;;;;;;;8.03;70.37;99024.89;232139;201;137591;-58
2023/12/31 00:21:21;;;;;;;13.60;8.70;;;;;;;8.04;70.44;99025.70;232072;204;151615;-60
2023/12/31 00:26:25;;;;;;;16.20;9.30;;;;;;;8.02;70.43;99021.86;232163;197;138545;-58
2023/12/31 00:31:37;;;;;;;16.00;9.30;;;;;;;8.00;70.30;99016.52;232160;200;138077;-60
2023/12/31 00:36:41;;;;;;;15.20;9.60;;;;;;;7.94;70.29;99026.05;232080;197;151977;-58
2023/12/31 00:41:44;;;;;;;14.30;9.70;;;;;;;7.88;70.43;99027.57;231555;201;136919;-62
2023/12/31 00:46:48;;;;;;;13.10;9.00;;;;;;;7.87;70.66;99033.45;232151;204;137307;-59
2023/12/31 00:51:51;;;;;;;15.60;8.90;;;;;;;7.88;70.56;99035.73;231960;198;153012;-60
2023/12/31 00:56:54;;;;;;;13.50;9.60;;;;;;;7.92;70.76;99038.31;232002;200;137868;-59
2023/12/31 01:01:57;;;;;;;16.80;9.70;;;;;;;7.97;70.65;99045.98;232034;204;137087;-59
2023/12/31 01:07:01;;;;;;;14.50;10.00;;;;;;;8.01;70.75;99044.58;231822;204;151557;-59
2023/12/31 01:12:04;;;;;;;16.10;10.10;;;;;;;8.00;70.56;99042.48;232092;197;138372;-59
2023/12/31 01:17:10;;;;;;;14.80;9.80;;;;;;;7.98;70.68;99038.20;231656;204;137427;-60
2023/12/31 01:22:14;;;;;;;16.80;9.80;;;;;;;7.95;70.59;99043.63;231936;198;152416;-61
2023/12/31 01:27:17;;;;;;;17.90;10.20;;;;;;;7.87;70.59;99046.35;232215;204;138192;-61
2023/12/31 01:32:21;;;;;;;16.20;10.30;;;;;;;7.82;70.85;99053.33;232105;198;140426;-60
2023/12/31 01:37:24;;;;;;;14.90;9.90;;;;;;;7.80;71.10;99052.69;231670;204;153389;-59
2023/12/31 01:42:30;;;;;;;17.60;10.60;;;;;;;7.75;71.21;99055.05;232192;196;138000;-61
2023/12/31 01:47:34;;;;;;;15.90;10.20;;;;;;;7.73;71.32;99054.46;232197;204;137056;-57
2023/12/31 01:52:38;;;;;;;13.70;9.30;;;;;;;7.71;71.18;99050.67;231907;204;151428;-58
2023/12/31 01:57:42;;;;;;;17.60;11.10;;;;;;;7.75;71.29;99050.30;232085;202;138775;-58
2023/12/31 02:02:48;;;;;;;19.00;11.20;;;;;;;7.80;71.51;99044.38;231223;198;138490;-55
2023/12/31 02:07:51;;;;;;;21.70;11.40;;;;;;;7.81;71.37;99036.41;231766;204;153945;-60
2023/12/31 02:12:56;;;;;;;19.50;11.30;;;;;;;7.76;71.46;99040.19;231983;198;136909;-60
2023/12/31 02:18:00;;;;;;;18.60;11.80;;;;;;;7.67;71.64;99042.60;231514;204;137780;-59
2023/12/31 02:23:05;;;;;;;19.50;11.80;;;;;;;7.64;71.73;99037.63;232167;204;152411;-55
2023/12/31 02:28:13;;;;;;;17.40;11.80;;;;;;;7.62;71.81;99034.19;231465;204;138494;-57
2023/12/31 02:33:16;;;;;;;21.20;12.60;;;;;;;7.62;71.92;99033.31;231804;198;137876;-61
2023/12/31 02:38:19;;;;;;;18.60;11.50;;;;;;;7.62;71.88;99032.79;231888;204;151763;-59
2023/12/31 02:43:23;;;;;;;17.00;10.40;;;;;;;7.60;71.82;99029.01;231928;204;138585;-58
2023/12/31 02:48:26;;;;;;;18.90;12.10;;;;;;;7.60;71.67;99024.05;232193;198;137958;-58
2023/12/31 02:53:31;;;;;;;20.20;11.50;;;;;;;7.59;71.61;99022.34;231828;197;151774;-60
2023/12/31 02:58:35;;;;;;;21.30;11.90;;;;;;;7.62;71.47;99025.71;231634;198;137671;-55
2023/12/31 03:03:38;;;;;;;19.70;12.20;;;;;;;7.61;71.28;99020.46;231545;198;137741;-59
2023/12/31 03:08:41;;;;;;;20.60;12.70;;;;;;;7.57;71.28;99023.14;232006;197;151249;-58
2023/12/31 03:13:44;;;;;;;21.50;12.00;;;;;;;7.53;71.32;99030.39;231860;200;137353;-57
2023/12/31 03:18:48;;;;;;;20.50;11.80;;;;;;;7.50;71.45;99031.24;231791;204;138097;-57
2023/12/31 03:23:51;;;;;;;18.60;11.70;;;;;;;7.44;71.42;99026.80;232247;197;151389;-59
2023/12/31 03:28:54;;;;;;;19.00;11.90;;;;;;;7.35;71.41;99030.41;232016;200;138256;-59
2023/12/31 03:33:57;;;;;;;21.20;11.20;;;;;;;7.28;71.56;99033.39;231578;205;138154;-59
2023/12/31 03:39:02;;;;;;;19.20;12.70;;;;;;;7.36;71.76;99035.30;231643;198;152498;-57
2023/12/31 03:44:05;;;;;;;16.90;12.00;;;;;;;7.45;71.94;99034.35;232029;201;137940;-59
2023/12/31 03:49:09;;;;;;;17.20;11.20;;;;;;;7.48;70.64;99037.02;231989;201;136879;-59
2023/12/31 03:54:12;;;;;;;17.70;11.20;;;;;;;7.32;69.59;99036.02;231866;198;151404;-60
2023/12/31 03:59:16;;;;;;;18.90;11.80;;;;;;;7.09;69.30;99034.11;232219;197;137540;-60
2023/12/31 04:04:20;;;;;;;19.10;12.50;;;;;;;6.91;69.45;99038.52;231664;201;137038;-60
2023/12/31 04:09:23;;;;;;;18.80;12.90;;;;;;;6.74;69.56;99037.75;231120;201;152753;-60
2023/12/31 04:14:26;;;;;;;22.20;13.40;;;;;;;6.58;69.96;99036.15;231943;198;137549;-58
2023/12/31 04:19:30;;;;;;;19.40;13.20;;;;;;;6.46;70.00;99033.19;232159;204;137153;-60
2023/12/31 04:24:33;;;;;;;19.00;12.60;;;;;;;6.33;70.21;99037.45;232042;204;152418;-59
2023/12/31 04:29:37;;;;;;;20.00;12.80;;;;;;;6.20;70.19;99042.45;232255;204;136704;-61
2023/12/31 04:34:40;;;;;;;19.00;13.40;;;;;;;6.10;70.06;99042.71;232098;201;137176;-61
2023/12/31 04:39:43;;;;;;;20.80;13.00;;;;;;;5.98;70.23;99043.95;232099;201;152684;-61
2023/12/31 04:44:46;;;;;;;19.70;12.90;;;;;;;5.92;70.38;99047.70;232134;198;139005;-60
2023/12/31 04:49:50;;;;;;;16.00;11.50;;;;;;;5.91;70.20;99047.94;232107;198;138322;-58
2023/12/31 04:54:53;;;;;;;19.10;13.20;;;;;;;5.93;69.99;99044.34;231945;204;151333;-58
2023/12/31 04:59:56;;;;;;;21.80;13.70;;;;;;;5.94;69.63;99040.79;232259;204;137494;-59
2023/12/31 05:05:02;;;;;;;21.30;13.10;;;;;;;5.91;69.44;99031.19;232125;198;136714;-62
2023/12/31 05:10:06;;;;;;;17.40;12.80;;;;;;;5.82;69.43;99031.73;232159;204;152060;-61
2023/12/31 05:15:10;;;;;;;19.90;12.80;;;;;;;5.74;69.31;99035.44;231591;201;138412;-60
2023/12/31 05:20:13;;;;;;;20.60;14.10;;;;;;;5.65;69.34;99026.85;231980;204;138036;-62
2023/12/31 05:25:16;;;;;;;20.00;12.90;;;;;;;5.58;69.31;99023.09;231900;198;151178;-59
2023/12/31 05:30:20;;;;;;;22.00;14.30;;;;;;;5.48;69.35;99022.09;231396;201;137065;-59
2023/12/31 05:35:23;;;;;;;22.50;15.30;;;;;;;5.35;69.34;99020.03;231736;204;137283;-60
2023/12/31 05:40:26;;;;;;;22.20;14.90;;;;;;;5.29;69.55;99014.95;231796;197;152663;-59
2023/12/31 05:45:30;;;;;;;22.00;14.50;;;;;;;5.26;69.35;99012.83;231653;204;136961;-57
2023/12/31 05:50:33;;;;;;;20.40;14.00;;;;;;;5.17;69.21;99006.50;232072;197;139023;-58
2023/12/31 05:55:37;;;;;;;23.20;15.60;;;;;;;5.10;69.28;99011.01;231689;197;151686;-57
2023/12/31 06:00:40;;;;;;;23.30;16.00;;;;;;;5.12;69.50;99009.52;231999;199;137980;-59
2023/12/31 06:05:44;;;;;;;22.80;15.30;;;;;;;5.21;69.41;99004.58;231992;197;137760;-57
2023/12/31 06:10:47;;;;;;;21.90;15.30;;;;;;;5.16;68.78;99001.45;231889;198;152166;-60
2023/12/31 06:15:50;;;;;;;19.20;13.80;;;;;;;5.10;68.76;98991.84;232151;197;137584;-60
2023/12/31 06:20:54;;;;;;;21.60;14.60;;;;;;;5.03;68.79;98988.41;231795;204;137359;-61
2023/12/31 06:25:57;;;;;;;22.60;15.50;;;;;;;5.02;68.69;98984.08;231864;201;151523;-61
2023/12/31 06:31:00;;;;;;;22.20;15.10;;;;;;;4.96;68.52;98981.30;231592;201;264777;-58
2023/12/31 06:36:04;;;;;;;22.00;14.70;;;;;;;4.89;68.60;98976.33;231897;204;139397;-60
2023/12/31 06:41:08;;;;;;;24.80;14.80;;;;;;;4.82;68.49;98974.15;232109;197;151462;-59
2023/12/31 06:46:11;;;;;;;23.90;14.80;;;;;;;4.71;68.75;98971.05;232001;204;137639;-60
2023/12/31 06:51:15;;;;;;;26.20;15.50;;;;;;;4.63;69.15;98961.71;231751;197;139648;-59
2023/12/31 06:56:18;;;;;;;32.90;17.70;;;;;;;4.56;69.23;98954.60;231943;197;152314;-61
2023/12/31 07:01:21;;;;;;;26.90;16.40;;;;;;;4.46;69.63;98959.02;231913;201;138179;-59
2023/12/31 07:06:25;;;;;;;26.30;15.60;;;;;;;4.42;69.95;98953.92;231606;201;137880;-60
2023/12/31 07:11:28;;;;;;;23.50;15.80;;;;;;;4.47;70.08;98951.24;232065;198;152490;-60
2023/12/31 07:16:31;;;;;;;25.80;15.80;;;;;;;4.52;69.87;98944.04;232075;198;137483;-60
2023/12/31 07:21:35;;;;;;;20.20;13.90;;;;;;;4.53;69.71;98942.44;231877;198;136888;-60
2023/12/31 07:26:38;;;;;;;22.60;14.20;;;;;;;4.57;69.70;98938.42;231822;202;152117;-59
2023/12/31 07:31:42;;;;;;;22.00;14.00;;;;;;;4.59;69.43;98935.86;232060;197;140054;-60
2023/12/31 07:36:45;;;;;;;20.70;14.60;;;;;;;4.59;69.68;98931.82;232040;201;137552;-57
2023/12/31 07:41:48;;;;;;;19.90;14.60;;;;;;;4.64;70.03;98928.10;232146;197;151513;-60
2023/12/31 07:46:55;;;;;;;21.40;14.40;;;;;;;4.67;70.02;98930.30;232072;201;137334;-59
2023/12/31 07:51:59;;;;;;;20.70;14.30;;;;;;;4.74;70.19;98915.27;231991;200;137873;-58
2023/12/31 07:57:03;;;;;;;22.20;13.80;;;;;;;4.80;70.22;98912.35;231810;204;152188;-59
2023/12/31 08:02:06;;;;;;;21.50;14.70;;;;;;;4.84;70.20;98904.31;232146;200;137287;-58
2023/12/31 08:07:09;;;;;;;20.40;14.50;;;;;;;4.88;70.51;98894.12;232005;197;138522;-58
2023/12/31 08:12:13;;;;;;;20.60;14.10;;;;;;;4.98;70.75;98890.70;232097;197;152206;-60
2023/12/31 08:17:16;;;;;;;20.60;14.20;;;;;;;5.11;70.58;98889.63;232099;204;137201;-59
2023/12/31 08:22:19;;;;;;;20.70;15.40;;;;;;;5.26;70.80;98885.83;232050;201;137357;-60
2023/12/31 08:27:23;;;;;;;23.60;16.30;;;;;;;5.38;70.68;98887.06;232056;204;152623;-63
2023/12/31 08:32:29;;;;;;;20.90;14.70;;;;;;;5.44;70.99;98879.23;232174;201;136920;-60
2023/12/31 08:37:33;;;;;;;22.80;16.10;;;;;;;5.55;71.20;98870.13;231849;198;136633;-59
2023/12/31 08:42:36;;;;;;;20.80;14.90;;;;;;;5.63;71.46;98870.50;232020;204;152391;-61
2023/12/31 08:47:40;;;;;;;22.20;15.20;;;;;;;5.70;71.50;98868.23;232223;204;136563;-58
2023/12/31 08:52:46;;;;;;;18.80;14.20;;;;;;;5.77;71.67;98866.84;232018;198;137623;-59
2023/12/31 08:57:50;;;;;;;21.20;13.50;;;;;;;5.85;71.76;98861.19;231863;204;152027;-57
2023/12/31 09:02:54;;;;;;;18.80;12.20;;;;;;;5.95;72.11;98860.10;232206;204;137953;-58
2023/12/31 09:07:58;;;;;;;16.50;10.70;;;;;;;6.08;72.19;98856.30;231834;202;138083;-57
2023/12/31 09:13:02;;;;;;;20.10;12.10;;;;;;;6.29;72.07;98848.45;231914;204;151236;-59
2023/12/31 09:18:06;;;;;;;15.60;10.90;;;;;;;6.47;71.78;98839.85;232260;204;137217;-58
2023/12/31 09:23:10;;;;;;;16.60;10.60;;;;;;;6.63;71.54;98836.78;232135;202;140946;-58
2023/12/31 09:28:13;;;;;;;15.40;10.90;;;;;;;6.76;71.30;98832.44;231792;204;152848;-59
2023/12/31 09:33:17;;;;;;;14.30;10.20;;;;;;;6.85;71.19;98821.89;232024;200;137870;-60
2023/12/31 09:38:20;;;;;;;14.10;9.40;;;;;;;6.99;71.07;98810.77;231737;198;136948;-58
2023/12/31 09:43:25;;;;;;;12.80;9.40;;;;;;;7.15;70.96;98797.25;231893;204;152948;-60
2023/12/31 09:48:29;;;;;;;14.20;9.30;;;;;;;7.33;70.95;98794.55;232111;198;140227;-59
2023/12/31 09:53:35;;;;;;;12.40;8.60;;;;;;;7.50;70.68;98778.66;231657;204;136609;-56
2023/12/31 09:58:38;;;;;;;11.50;9.00;;;;;;;7.66;70.21;98777.96;231728;198;151969;-57
2023/12/31 10:03:44;;;;;;;11.20;7.70;;;;;;;7.80;70.18;98768.20;231649;200;137618;-59
2023/12/31 10:08:47;;;;;;;;;;;;;;;7.95;70.02;98759.94;231868;204;138068;-60
2023/12/31 10:13:51;;;;;;;14.20;7.00;;;;;;;8.16;69.66;98752.06;232051;204;151296;-58
2023/12/31 10:18:55;;;;;;;11.90;7.30;;;;;;;8.39;69.06;98743.34;231987;201;136795;-58
2023/12/31 10:23:58;;;;;;;13.10;9.20;;;;;;;8.58;68.54;98732.00;232047;199;136715;-58
2023/12/31 10:29:05;;;;;;;12.20;7.50;;;;;;;8.73;68.35;98722.58;232119;199;151082;-58
2023/12/31 10:34:13;;;;;;;12.10;7.40;;;;;;;8.94;68.14;98719.56;232040;204;137239;-60
2023/12/31 10:39:31;;;;;;;11.80;7.50;;;;;;;9.12;67.73;98717.03;232018;197;137899;-60
2023/12/31 10:44:36;;;;;;;10.30;6.70;;;;;;;9.26;67.39;98703.48;231957;198;151981;-60
2023/12/31 10:49:43;;;;;;;11.30;7.30;;;;;;;9.32;66.98;98694.09;232075;201;137086;-60
2023/12/31 10:54:51;;;;;;;11.10;7.50;;;;;;;9.34;67.01;98687.73;231973;202;140943;-59
2023/12/31 10:59:56;;;;;;;11.50;7.10;;;;;;;9.35;66.79;98686.98;232054;204;151291;-57
2023/12/31 11:05:01;;;;;;;11.60;7.10;;;;;;;9.34;66.78;98681.38;232274;204;136854;-60
2023/12/31 11:10:06;;;;;;;13.80;7.80;;;;;;;9.37;66.79;98673.92;231904;197;137704;-59
2023/12/31 11:15:15;;;;;;;9.60;6.60;;;;;;;9.40;66.49;98665.91;232148;198;151804;-59
2023/12/31 11:20:50;;;;;;;12.00;7.70;;;;;;;9.45;66.41;98660.83;231658;197;137294;-59
2023/12/31 11:25:53;;;;;;;9.70;7.10;;;;;;;9.48;66.38;98654.10;232032;197;137624;-56
2023/12/31 11:30:58;;;;;;;12.10;7.60;;;;;;;9.52;66.51;98647.64;231899;198;151614;-57
2023/12/31 11:36:05;;;;;;;10.00;6.50;;;;;;;9.55;66.49;98643.39;232072;204;136917;-59
2023/12/31 11:41:09;;;;;;;11.30;7.70;;;;;;;9.59;66.22;98634.06;231810;204;137830;-61
2023/12/31 11:46:35;;;;;;;11.90;8.20;;;;;;;9.67;66.22;98620.59;231676;197;151588;-57
2023/12/31 11:52:01;;;;;;;13.00;8.10;;;;;;;9.77;65.83;98609.73;231907;198;137394;-62
2023/12/31 11:57:06;;;;;;;12.40;8.20;;;;;;;9.80;65.54;98602.23;232167;197;136623;-59
2023/12/31 12:02:10;;;;;;;12.50;8.70;;;;;;;9.82;65.51;98593.08;231917;205;151980;-60
2023/12/31 12:07:14;;;;;;;13.10;8.60;;;;;;;9.82;65.37;98588.46;231743;199;137542;-62
2023/12/31 12:12:18;;;;;;;16.00;9.30;;;;;;;9.82;65.54;98579.98;232067;204;137617;-61
2023/12/31 12:17:27;;;;;;;16.70;11.30;;;;;;;9.83;65.63;98574.77;231887;204;152612;-60
2023/12/31 12:22:31;;;;;;;11.20;8.30;;;;;;;9.83;65.81;98573.86;232069;204;140251;-58
2023/12/31 12:27:35;;;;;;;13.60;8.70;;;;;;;9.89;65.80;98567.11;232020;197;137591;-60
2023/12/31 12:32:44;;;;;;;10.80;7.70;;;;;;;9.92;65.64;98555.02;231789;198;152234;-58
2023/12/31 12:37:48;;;;;;;12.20;7.50;;;;;;;9.87;65.34;98541.33;231867;204;137140;-56
2023/12/31 12:42:53;;;;;;;8.90;9.00;;;;;;;9.86;65.46;98539.10;231941;204;138229;-58
2023/12/31 12:47:59;;;;;;;10.20;7.10;;;;;;;9.94;65.57;98525.10;231646;197;153128;-56
2023/12/31 12:53:03;;;;;;;11.90;7.70;;;;;;;10.02;65.20;98507.02;232085;197;137502;-59
2023/12/31 12:58:07;;;;;;;12.50;7.60;;;;;;;10.08;65.11;98509.82;232094;204;137208;-59
2023/12/31 13:03:11;;;;;;;11.30;7.60;;;;;;;10.06;64.77;98518.80;232244;197;151272;-59
2023/12/31 13:08:14;;;;;;;11.80;7.30;;;;;;;10.03;64.51;98517.24;232120;204;137177;-58
2023/12/31 13:13:22;;;;;;;13.90;7.50;;;;;;;9.99;64.25;98511.83;232046;204;140687;-56
2023/12/31 13:18:25;;;;;;;11.40;7.70;;;;;;;9.91;64.43;98509.00;231728;198;152670;-60
2023/12/31 13:23:29;;;;;;;10.40;7.30;;;;;;;9.87;64.56;98498.16;232131;201;137787;-60
2023/12/31 13:28:32;;;;;;;8.20;6.20;;;;;;;9.82;64.66;98491.91;232090;201;139991;-60
2023/12/31 13:33:36;;;;;;;10.40;6.80;;;;;;;9.74;64.60;98482.16;230928;198;151421;-61
2023/12/31 13:38:39;;;;;;;9.60;6.10;;;;;;;9.67;64.65;98480.67;232049;201;137538;-58
2023/12/31 13:43:43;;;;;;;8.30;6.50;;;;;;;9.58;64.73;98474.61;232023;198;136732;-59
2023/12/31 13:48:46;;;;;;;9.10;6.00;;;;;;;9.50;64.86;98473.37;231974;200;151346;-60
2023/12/31 13:53:50;;;;;;;7.90;5.90;;;;;;;9.45;64.97;98465.02;231943;204;137256;-60
2023/12/31 13:58:53;;;;;;;8.00;5.90;;;;;;;9.41;64.99;98456.05;231893;201;136842;-58
2023/12/31 14:03:56;;;;;;;9.00;6.20;;;;;;;9.36;65.01;98448.64;231267;198;152831;-59
2023/12/31 14:08:59;;;;;;;8.70;5.90;;;;;;;9.26;65.04;98447.13;231421;204;136867;-58
2023/12/31 14:14:06;;;;;;;9.50;6.00;;;;;;;9.19;65.11;98444.58;231776;201;138050;-60
2023/12/31 14:19:09;;;;;;;10.10;6.70;;;;;;;9.16;65.23;98443.88;232070;198;151250;-63
2023/12/31 14:24:29;;;;;;;8.60;6.40;;;;;;;9.18;65.26;98437.78;232057;197;137324;-64
2023/12/31 14:29:33;;;;;;;10.00;6.60;;;;;;;9.19;65.21;98432.38;232012;197;138086;-58
2023/12/31 14:34:36;;;;;;;8.30;6.10;;;;;;;9.18;65.14;98430.31;231917;201;153361;-63
2023/12/31 14:39:41;;;;;;;10.50;6.60;;;;;;;9.11;64.97;98421.59;231974;197;137968;-62
2023/12/31 14:44:44;;;;;;;12.20;7.70;;;;;;;9.03;65.04;98410.11;232103;200;139143;-63
2023/12/31 14:49:47;;;;;;;11.30;7.40;;;;;;;8.89;65.09;98405.19;231978;204;151903;-63
2023/12/31 14:54:51;;;;;;;11.00;7.20;;;;;;;8.77;65.32;98397.46;231776;198;136819;-59
2023/12/31 14:59:54;;;;;;;10.20;6.40;;;;;;;8.66;65.50;98389.53;232278;204;137425;-58
2023/12/31 15:04:57;;;;;;;10.30;6.90;;;;;;;8.59;65.63;98384.84;231964;204;153900;-61
2023/12/31 15:10:17;;;;;;;11.00;7.30;;;;;;;8.52;65.76;98368.66;232133;204;137064;-61
2023/12/31 15:15:21;;;;;;;10.90;6.70;;;;;;;8.43;65.77;98367.33;231782;197;137478;-59
2023/12/31 15:20:24;;;;;;;9.30;6.60;;;;;;;8.36;65.97;98368.98;231947;202;151837;-57
2023/12/31 15:25:27;;;;;;;14.10;8.30;;;;;;;8.28;66.07;98369.66;231980;204;136303;-57
2023/12/31 15:30:31;;;;;;;11.50;7.40;;;;;;;8.17;66.20;98365.69;232095;197;137605;-59
2023/12/31 15:35:34;;;;;;;9.20;7.00;;;;;;;8.10;66.51;98355.91;231955;204;152215;-61
2023/12/31 15:40:39;;;;;;;13.40;8.00;;;;;;;8.11;66.79;98355.37;231770;205;136806;-63
2023/12/31 15:45:42;;;;;;;13.60;8.40;;;;;;;8.15;66.95;98351.55;231808;198;138672;-61
2023/12/31 15:50:46;;;;;;;12.50;8.10;;;;;;;8.22;66.87;98354.10;231724;198;152408;-60
2023/12/31 15:55:49;;;;;;;14.20;8.70;;;;;;;8.30;66.89;98353.04;231838;201;140437;-59
2023/12/31 16:00:52;;;;;;;13.00;8.20;;;;;;;8.34;66.75;98344.19;231801;197;137412;-60
2023/12/31 16:05:55;;;;;;;13.50;9.50;;;;;;;8.34;66.78;98337.23;231900;197;151614;-61
2023/12/31 16:11:01;;;;;;;13.80;9.10;;;;;;;8.35;66.67;98331.20;231820;201;137998;-61
2023/12/31 16:16:06;;;;;;;12.90;9.10;;;;;;;8.35;66.57;98332.26;231938;198;137049;-63
2023/12/31 16:21:21;;;;;;;14.30;9.60;;;;;;;8.35;66.69;98327.31;231952;201;151995;-61
2023/12/31 16:26:24;;;;;;;16.60;11.50;;;;;;;8.33;66.67;98331.52;231967;199;137630;-61
2023/12/31 16:31:27;;;;;;;16.60;11.40;;;;;;;8.30;66.73;98328.34;232190;201;140437;-62
2023/12/31 16:36:31;;;;;;;19.10;11.40;;;;;;;8.29;66.78;98333.89;232032;204;151169;-62
2023/12/31 16:41:37;;;;;;;16.60;11.30;;;;;;;8.29;66.73;98325.05;232179;204;137653;-62
2023/12/31 16:46:41;;;;;;;16.80;11.50;;;;;;;8.24;66.70;98317.23;231992;197;137832;-61
2023/12/31 16:51:44;;;;;;;19.10;11.50;;;;;;;8.19;66.77;98316.83;231921;204;151260;-63
2023/12/31 16:56:47;;;;;;;18.90;12.50;;;;;;;8.17;66.90;98313.23;232181;204;138034;-64
2023/12/31 17:01:52;;;;;;;18.70;11.50;;;;;;;8.17;66.86;98314.29;231697;197;137963;-61
2023/12/31 17:06:55;;;;;;;20.90;11.50;;;;;;;8.20;66.84;98309.70;232159;197;151310;-60
2023/12/31 17:11:58;;;;;;;20.50;12.50;;;;;;;8.25;66.82;98306.52;232040;204;137270;-58
2023/12/31 17:17:03;;;;;;;19.70;11.90;;;;;;;8.32;66.69;98296.41;232088;205;137116;-61
2023/12/31 17:22:07;;;;;;;20.90;13.00;;;;;;;8.31;66.71;98286.54;232223;198;151355;-61
2023/12/31 17:27:10;;;;;;;18.30;11.20;;;;;;;8.32;66.51;98278.69;231776;205;137723;-62
2023/12/31 17:32:13;;;;;;;17.70;11.80;;;;;;;8.31;66.47;98271.56;231832;201;138763;-61
2023/12/31 17:37:17;;;;;;;16.70;11.20;;;;;;;8.26;66.44;98270.61;232171;201;151561;-62
2023/12/31 17:42:20;;;;;;;16.90;11.60;;;;;;;8.24;66.52;98261.36;231356;197;137162;-60
2023/12/31 17:47:23;;;;;;;19.70;12.70;;;;;;;8.24;66.46;98255.72;231897;204;137497;-61
2023/12/31 17:52:26;;;;;;;17.80;11.80;;;;;;;8.16;66.47;98252.57;232013;201;153299;-61
2023/12/31 17:57:29;;;;;;;17.20;11.60;;;;;;;8.09;66.53;98253.91;231902;198;136911;-62
2023/12/31 18:02:32;;;;;;;19.60;11.50;;;;;;;8.04;66.72;98262.14;232137;201;138529;-62
2023/12/31 18:07:36;;;;;;;18.50;11.80;;;;;;;7.98;66.86;98257.78;232162;204;151487;-60
2023/12/31 18:12:41;;;;;;;18.30;12.20;;;;;;;7.93;67.18;98243.45;232152;204;138024;-61
2023/12/31 18:17:45;;;;;;;20.50;13.20;;;;;;;7.88;67.10;98253.33;231977;201;137023;-63
2023/12/31 18:22:48;;;;;;;23.40;13.60;;;;;;;7.83;67.32;98253.09;232012;198;151652;-62
2023/12/31 18:27:51;;;;;;;25.20;14.20;;;;;;;7.83;67.26;98241.22;231914;204;139312;-60
2023/12/31 18:32:54;;;;;;;23.40;14.00;;;;;;;7.87;67.14;98225.30;231715;204;137390;-62
2023/12/31 18:37:58;;;;;;;24.70;15.60;;;;;;;7.90;66.92;98222.44;231955;202;151424;-68
2023/12/31 18:43:01;;;;;;;26.50;16.60;;;;;;;7.96;66.86;98220.27;231824;198;137738;-61
2023/12/31 18:48:05;;;;;;;39.30;23.70;;;;;;;7.98;66.73;98214.67;232041;198;137943;-60
2023/12/31 18:53:09;;;;;;;29.70;18.20;;;;;;;7.86;66.70;98206.95;232058;204;150793;-65
2023/12/31 18:58:12;;;;;;;26.90;16.30;;;;;;;7.77;66.86;98207.02;232023;204;138202;-62
2023/12/31 19:03:15;;;;;;;28.80;15.70;;;;;;;7.73;67.00;98196.83;232045;201;137833;-66
2023/12/31 19:08:21;;;;;;;25.30;15.90;;;;;;;7.65;67.01;98179.88;232074;201;151964;-63
2023/12/31 19:13:24;;;;;;;25.90;16.30;;;;;;;7.54;67.14;98166.77;231997;201;137757;-64
2023/12/31 19:18:27;;;;;;;26.00;15.80;;;;;;;7.44;67.24;98169.73;232029;201;137772;-57
2023/12/31 19:23:30;;;;;;;29.40;17.30;;;;;;;7.37;67.57;98161.56;231984;202;151506;-61
2023/12/31 19:28:33;;;;;;;24.20;15.40;;;;;;;7.32;67.89;98160.44;232058;200;140211;-62
2023/12/31 19:33:37;;;;;;;28.40;15.90;;;;;;;7.28;68.01;98155.08;232030;204;138126;-60
2023/12/31 19:38:40;;;;;;;27.50;16.30;;;;;;;7.31;67.86;98153.81;231918;204;151514;-65
2023/12/31 19:43:43;;;;;;;29.00;16.80;;;;;;;7.31;67.85;98149.40;232100;198;137272;-60
2023/12/31 19:49:09;;;;;;;30.00;17.70;;;;;;;7.27;67.99;98154.75;232209;198;137560;-65
2023/12/31 19:54:12;;;;;;;29.50;17.30;;;;;;;7.28;68.12;98156.64;232061;201;151497;-64
2023/12/31 19:59:17;;;;;;;30.70;18.80;;;;;;;7.27;68.21;98151.95;231885;198;136851;-65
2023/12/31 20:04:20;;;;;;;30.90;18.60;;;;;;;7.23;68.12;98146.20;232151;201;137641;-65
2023/12/31 20:09:23;;;;;;;28.10;17.70;;;;;;;7.18;68.28;98151.12;232169;204;151769;-65
2023/12/31 20:14:26;;;;;;;27.70;17.80;;;;;;;7.14;68.54;98155.63;231923;198;136586;-64
2023/12/31 20:19:30;;;;;;;27.80;17.50;;;;;;;7.09;68.81;98151.84;232149;202;137590;-66
2023/12/31 20:24:33;;;;;;;30.30;19.20;;;;;;;7.04;68.87;98151.41;231575;197;151163;-59
2023/12/31 20:29:37;;;;;;;31.10;19.40;;;;;;;7.02;68.96;98150.36;231933;204;137492;-65
2023/12/31 20:34:40;;;;;;;27.60;17.30;;;;;;;6.98;69.28;98150.42;231849;204;137012;-65
2023/12/31 20:39:43;;;;;;;28.80;18.10;;;;;;;7.00;69.34;98148.38;232052;202;151366;-62
2023/12/31 20:44:47;;;;;;;29.00;18.70;;;;;;;7.06;69.33;98139.66;232119;201;137964;-66
2023/12/31 20:49:51;;;;;;;33.60;19.50;;;;;;;7.12;69.31;98143.38;232141;204;137377;-65
2023/12/31 20:54:55;;;;;;;31.10;19.60;;;;;;;7.14;69.04;98144.82;232131;197;151437;-59
2023/12/31 20:59:58;;;;;;;32.30;20.40;;;;;;;7.14;68.94;98137.06;231754;204;137742;-64
2023/12/31 21:05:02;;;;;;;34.40;21.70;;;;;;;7.13;69.06;98138.38;232136;204;137878;-63
2023/12/31 21:10:06;;;;;;;34.10;22.10;;;;;;;7.10;69.02;98145.08;232006;204;153069;-64
2023/12/31 21:15:09;;;;;;;34.00;21.50;;;;;;;7.08;69.06;98156.11;232118;204;138761;-63
2023/12/31 21:20:13;;;;;;;34.20;21.10;;;;;;;7.07;69.25;98153.71;232274;204;136723;-65
2023/12/31 21:25:16;;;;;;;33.70;21.00;;;;;;;7.05;69.34;98151.73;232132;204;151516;-66
2023/12/31 21:30:19;;;;;;;32.50;20.90;;;;;;;7.03;69.35;98159.08;232188;198;137281;-64
2023/12/31 21:35:23;;;;;;;32.90;20.60;;;;;;;7.00;69.45;98162.27;231973;198;137433;-64
2023/12/31 21:40:26;;;;;;;33.50;20.50;;;;;;;6.97;69.50;98164.73;231969;197;152591;-63
2023/12/31 21:45:30;;;;;;;33.50;20.40;;;;;;;6.97;69.48;98165.95;231641;197;137426;-65
2023/12/31 21:50:36;;;;;;;42.00;25.00;;;;;;;7.03;69.48;98165.41;231939;197;137670;-63
2023/12/31 21:55:40;;;;;;;35.90;23.20;;;;;;;7.16;69.41;98163.59;231815;201;152612;-66
2023/12/31 22:01:03;;;;;;;44.70;24.50;;;;;;;7.22;69.21;98157.17;231910;197;137279;-63
2023/12/31 22:06:10;;;;;;;84.80;32.10;;;;;;;7.24;69.11;98155.14;232267;201;138437;-64
2023/12/31 22:11:13;;;;;;;37.80;24.80;;;;;;;7.20;68.92;98150.96;232156;198;151737;-64
2023/12/31 22:16:17;;;;;;;35.10;23.10;;;;;;;7.17;69.04;98152.59;231672;204;137254;-65
2023/12/31 22:21:21;;;;;;;39.20;24.40;;;;;;;7.07;68.95;98154.94;232041;205;137687;-66
2023/12/31 22:26:24;;;;;;;44.60;26.20;;;;;;;6.97;68.99;98145.17;231990;204;151523;-64
2023/12/31 22:31:29;;;;;;;42.70;26.00;;;;;;;6.93;69.20;98135.23;231666;197;137207;-65
2023/12/31 22:36:33;;;;;;;44.20;26.70;;;;;;;6.88;69.05;98135.85;232054;197;138189;-65
2023/12/31 22:41:36;;;;;;;44.80;28.10;;;;;;;6.80;69.12;98136.73;232155;204;152076;-66
2023/12/31 22:46:39;;;;;;;51.50;30.70;;;;;;;6.72;69.44;98140.21;231993;198;136718;-65
2023/12/31 22:51:43;;;;;;;51.90;29.80;;;;;;;6.62;69.63;98146.25;232020;201;136898;-65
2023/12/31 22:56:46;;;;;;;47.00;28.20;;;;;;;6.55;69.69;98147.34;232132;204;152335;-67
2023/12/31 23:01:49;;;;;;;46.60;27.60;;;;;;;6.52;69.77;98145.42;232098;201;137562;-55
2023/12/31 23:06:52;;;;;;;46.00;29.10;;;;;;;8.07;85.60;98132.64;231721;197;137997;-63
2023/12/31 23:11:55;;;;;;;50.50;30.70;;;;;;;9.37;68.72;98128.97;232104;204;151475;-66
2023/12/31 23:16:59;;;;;;;52.40;30.10;;;;;;;8.57;66.30;98138.64;231894;198;136890;-65
2023/12/31 23:22:02;;;;;;;79.40;45.80;;;;;;;8.00;66.32;98154.12;232208;204;136920;-63